Aviation Digital Data Service (ADDS)

Output produced by METARs form (0117 UTC 16 January 2019)
found at http://www.aviationweather.gov/metar/data/
 
TAF MWCB 151700Z 1518/1618 05013KT 9999 VCSH SCT018 SCT030
       
TAF MWCR 152300Z 1600/1624 05012KT 9999 VCSH SCT018 TEMP 1607/1612 SHRA
SCT018TCU SCT030